sensor_id;sensor_type;location;lat;lon;timestamp;pressure;altitude;pressure_sealevel;temperature;humidity
21779;BME280;11050;52.222;20.916;2023-06-22T00:00:50;100174.59;;;21.23;100.00
21779;BME280;11050;52.222;20.916;2023-06-22T00:03:18;100174.44;;;21.19;100.00
21779;BME280;11050;52.222;20.916;2023-06-22T00:05:46;100179.31;;;21.14;100.00
21779;BME280;11050;52.222;20.916;2023-06-22T00:08:12;100192.63;;;21.08;100.00
21779;BME280;11050;52.222;20.916;2023-06-22T00:10:38;100188.03;;;21.04;100.00
21779;BME280;11050;52.222;20.916;2023-06-22T00:13:06;100178.63;;;21.00;100.00
21779;BME280;11050;52.222;20.916;2023-06-22T00:15:32;100183.72;;;20.98;100.00
21779;BME280;11050;52.222;20.916;2023-06-22T00:17:58;100192.59;;;21.00;100.00
21779;BME280;11050;52.222;20.916;2023-06-22T00:20:25;100188.31;;;20.94;100.00
21779;BME280;11050;52.222;20.916;2023-06-22T00:22:55;100187.19;;;20.95;100.00
21779;BME280;11050;52.222;20.916;2023-06-22T00:25:21;100175.81;;;20.91;100.00
21779;BME280;11050;52.222;20.916;2023-06-22T00:27:48;100180.44;;;20.96;100.00
21779;BME280;11050;52.222;20.916;2023-06-22T00:30:16;100177.81;;;20.99;100.00
21779;BME280;11050;52.222;20.916;2023-06-22T00:32:43;100174.19;;;20.99;100.00
21779;BME280;11050;52.222;20.916;2023-06-22T00:35:09;100176.16;;;20.98;100.00
21779;BME280;11050;52.222;20.916;2023-06-22T00:37:36;100169.41;;;20.99;100.00
21779;BME280;11050;52.222;20.916;2023-06-22T00:40:03;100170.25;;;21.00;100.00
21779;BME280;11050;52.222;20.916;2023-06-22T00:42:30;100176.16;;;20.98;100.00
21779;BME280;11050;52.222;20.916;2023-06-22T00:44:56;100175.66;;;20.96;100.00
21779;BME280;11050;52.222;20.916;2023-06-22T00:47:23;100177.63;;;20.96;100.00
21779;BME280;11050;52.222;20.916;2023-06-22T00:49:50;100168.13;;;20.97;100.00
21779;BME280;11050;52.222;20.916;2023-06-22T00:52:22;100169.25;;;20.96;100.00
21779;BME280;11050;52.222;20.916;2023-06-22T00:54:53;100179.28;;;20.97;100.00
21779;BME280;11050;52.222;20.916;2023-06-22T00:57:20;100166.78;;;20.94;100.00
21779;BME280;11050;52.222;20.916;2023-06-22T00:59:48;100173.00;;;20.91;100.00
21779;BME280;11050;52.222;20.916;2023-06-22T01:02:14;100160.03;;;20.87;100.00
21779;BME280;11050;52.222;20.916;2023-06-22T01:04:40;100156.75;;;20.85;100.00
21779;BME280;11050;52.222;20.916;2023-06-22T01:07:42;100156.41;;;20.86;100.00
21779;BME280;11050;52.222;20.916;2023-06-22T01:10:40;100146.06;;;20.87;100.00
21779;BME280;11050;52.222;20.916;2023-06-22T01:13:41;100140.16;;;20.88;100.00
21779;BME280;11050;52.222;20.916;2023-06-22T01:16:35;100154.63;;;20.90;100.00
21779;BME280;11050;52.222;20.916;2023-06-22T01:19:29;100151.00;;;20.90;100.00
21779;BME280;11050;52.222;20.916;2023-06-22T01:22:02;100151.00;;;20.90;100.00
21779;BME280;11050;52.222;20.916;2023-06-22T01:24:40;100148.84;;;20.87;100.00
21779;BME280;11050;52.222;20.916;2023-06-22T01:30:07;100142.09;;;20.79;100.00
21779;BME280;11050;52.222;20.916;2023-06-22T01:32:38;100137.66;;;20.78;100.00
21779;BME280;11050;52.222;20.916;2023-06-22T01:35:07;100137.03;;;20.81;100.00
21779;BME280;11050;52.222;20.916;2023-06-22T01:37:37;100133.06;;;20.73;100.00
21779;BME280;11050;52.222;20.916;2023-06-22T01:40:06;100137.81;;;20.73;100.00
21779;BME280;11050;52.222;20.916;2023-06-22T01:42:35;100135.69;;;20.78;100.00
21779;BME280;11050;52.222;20.916;2023-06-22T01:45:02;100142.28;;;20.83;100.00
21779;BME280;11050;52.222;20.916;2023-06-22T01:47:28;100146.41;;;20.85;100.00
21779;BME280;11050;52.222;20.916;2023-06-22T01:49:55;100148.03;;;20.86;100.00
21779;BME280;11050;52.222;20.916;2023-06-22T01:52:21;100152.78;;;20.86;100.00
21779;BME280;11050;52.222;20.916;2023-06-22T01:54:47;100151.81;;;20.82;100.00
21779;BME280;11050;52.222;20.916;2023-06-22T01:57:16;100163.63;;;20.78;100.00
21779;BME280;11050;52.222;20.916;2023-06-22T02:00:04;100165.75;;;20.73;100.00
21779;BME280;11050;52.222;20.916;2023-06-22T02:05:17;100179.03;;;20.67;100.00
21779;BME280;11050;52.222;20.916;2023-06-22T02:07:53;100176.25;;;20.67;100.00
21779;BME280;11050;52.222;20.916;2023-06-22T02:10:23;100187.09;;;20.69;100.00
21779;BME280;11050;52.222;20.916;2023-06-22T02:12:51;100184.78;;;20.71;100.00
21779;BME280;11050;52.222;20.916;2023-06-22T02:15:18;100177.75;;;20.73;100.00
21779;BME280;11050;52.222;20.916;2023-06-22T02:17:45;100195.97;;;20.71;100.00
21779;BME280;11050;52.222;20.916;2023-06-22T02:20:16;100199.09;;;20.69;100.00
21779;BME280;11050;52.222;20.916;2023-06-22T02:22:42;100193.34;;;20.66;100.00
21779;BME280;11050;52.222;20.916;2023-06-22T02:25:08;100196.44;;;20.64;100.00
21779;BME280;11050;52.222;20.916;2023-06-22T02:27:34;100201.22;;;20.64;100.00
21779;BME280;11050;52.222;20.916;2023-06-22T02:30:00;100203.66;;;20.65;100.00
21779;BME280;11050;52.222;20.916;2023-06-22T02:32:25;100208.59;;;20.68;100.00
21779;BME280;11050;52.222;20.916;2023-06-22T02:34:52;100203.22;;;20.72;100.00
21779;BME280;11050;52.222;20.916;2023-06-22T02:37:18;100225.72;;;20.75;100.00
21779;BME280;11050;52.222;20.916;2023-06-22T02:39:44;100225.22;;;20.73;100.00
21779;BME280;11050;52.222;20.916;2023-06-22T02:42:10;100231.16;;;20.72;100.00
21779;BME280;11050;52.222;20.916;2023-06-22T02:44:36;100234.75;;;20.72;100.00
21779;BME280;11050;52.222;20.916;2023-06-22T02:47:02;100238.03;;;20.74;100.00
21779;BME280;11050;52.222;20.916;2023-06-22T02:49:28;100239.19;;;20.73;100.00
21779;BME280;11050;52.222;20.916;2023-06-22T02:51:54;100234.63;;;20.77;100.00
21779;BME280;11050;52.222;20.916;2023-06-22T02:54:20;100237.59;;;20.81;100.00
21779;BME280;11050;52.222;20.916;2023-06-22T02:56:46;100241.22;;;20.82;100.00
21779;BME280;11050;52.222;20.916;2023-06-22T02:59:13;100250.91;;;20.84;100.00
21779;BME280;11050;52.222;20.916;2023-06-22T03:01:39;100253.34;;;20.86;100.00
21779;BME280;11050;52.222;20.916;2023-06-22T03:04:09;100250.25;;;20.87;100.00
21779;BME280;11050;52.222;20.916;2023-06-22T03:06:35;100253.56;;;20.89;100.00
21779;BME280;11050;52.222;20.916;2023-06-22T03:09:05;100259.00;;;20.94;100.00
21779;BME280;11050;52.222;20.916;2023-06-22T03:11:31;100256.19;;;20.94;100.00
21779;BME280;11050;52.222;20.916;2023-06-22T03:13:59;100264.25;;;20.96;100.00
21779;BME280;11050;52.222;20.916;2023-06-22T03:16:25;100263.59;;;20.99;100.00
21779;BME280;11050;52.222;20.916;2023-06-22T03:18:51;100273.63;;;21.00;100.00
21779;BME280;11050;52.222;20.916;2023-06-22T03:21:16;100262.16;;;21.01;100.00
21779;BME280;11050;52.222;20.916;2023-06-22T03:23:43;100273.50;;;21.05;100.00
21779;BME280;11050;52.222;20.916;2023-06-22T03:26:09;100267.59;;;21.06;100.00
21779;BME280;11050;52.222;20.916;2023-06-22T03:28:35;100263.34;;;21.09;100.00
21779;BME280;11050;52.222;20.916;2023-06-22T03:31:01;100269.94;;;21.13;100.00
21779;BME280;11050;52.222;20.916;2023-06-22T03:33:27;100269.28;;;21.16;100.00
21779;BME280;11050;52.222;20.916;2023-06-22T03:35:52;100271.75;;;21.17;100.00
21779;BME280;11050;52.222;20.916;2023-06-22T03:38:19;100275.34;;;21.18;100.00
21779;BME280;11050;52.222;20.916;2023-06-22T03:40:45;100261.88;;;21.20;100.00
21779;BME280;11050;52.222;20.916;2023-06-22T03:43:10;100270.78;;;21.22;100.00
21779;BME280;11050;52.222;20.916;2023-06-22T03:45:36;100278.31;;;21.21;100.00
21779;BME280;11050;52.222;20.916;2023-06-22T03:48:03;100284.91;;;21.25;100.00
21779;BME280;11050;52.222;20.916;2023-06-22T03:50:28;100297.59;;;21.31;100.00
21779;BME280;11050;52.222;20.916;2023-06-22T03:52:55;100287.09;;;21.37;100.00
21779;BME280;11050;52.222;20.916;2023-06-22T03:55:21;100289.41;;;21.43;100.00
21779;BME280;11050;52.222;20.916;2023-06-22T03:57:47;100296.31;;;21.46;100.00
21779;BME280;11050;52.222;20.916;2023-06-22T04:00:13;100292.72;;;21.54;100.00
21779;BME280;11050;52.222;20.916;2023-06-22T04:02:41;100292.75;;;21.62;100.00
21779;BME280;11050;52.222;20.916;2023-06-22T04:05:09;100295.38;;;21.67;100.00
21779;BME280;11050;52.222;20.916;2023-06-22T04:07:35;100297.84;;;21.69;100.00
21779;BME280;11050;52.222;20.916;2023-06-22T04:10:06;100302.13;;;21.75;100.00
21779;BME280;11050;52.222;20.916;2023-06-22T04:12:33;100300.97;;;21.76;100.00
21779;BME280;11050;52.222;20.916;2023-06-22T04:14:59;100303.44;;;21.78;100.00
21779;BME280;11050;52.222;20.916;2023-06-22T04:17:25;100306.59;;;21.85;100.00
21779;BME280;11050;52.222;20.916;2023-06-22T04:19:51;100313.03;;;21.85;100.00
21779;BME280;11050;52.222;20.916;2023-06-22T04:22:17;100310.41;;;21.89;100.00
21779;BME280;11050;52.222;20.916;2023-06-22T04:24:44;100320.75;;;21.88;100.00
21779;BME280;11050;52.222;20.916;2023-06-22T04:27:10;100321.94;;;21.87;100.00
21779;BME280;11050;52.222;20.916;2023-06-22T04:29:37;100325.06;;;21.94;100.00
21779;BME280;11050;52.222;20.916;2023-06-22T04:32:04;100321.09;;;21.95;100.00
21779;BME280;11050;52.222;20.916;2023-06-22T04:34:32;100319.09;;;22.04;100.00
21779;BME280;11050;52.222;20.916;2023-06-22T04:36:58;100317.94;;;22.14;100.00
21779;BME280;11050;52.222;20.916;2023-06-22T04:39:24;100323.38;;;22.10;100.00
21779;BME280;11050;52.222;20.916;2023-06-22T04:41:50;100322.75;;;22.13;100.00
21779;BME280;11050;52.222;20.916;2023-06-22T04:44:18;100321.41;;;22.19;100.00
21779;BME280;11050;52.222;20.916;2023-06-22T04:49:22;100318.59;;;22.36;100.00
21779;BME280;11050;52.222;20.916;2023-06-22T04:51:48;100312.84;;;22.41;100.00
21779;BME280;11050;52.222;20.916;2023-06-22T04:54:15;100321.72;;;22.43;100.00
21779;BME280;11050;52.222;20.916;2023-06-22T04:56:41;100318.25;;;22.46;100.00
21779;BME280;11050;52.222;20.916;2023-06-22T04:59:07;100314.78;;;22.49;100.00
21779;BME280;11050;52.222;20.916;2023-06-22T05:01:33;100311.16;;;22.57;100.00
21779;BME280;11050;52.222;20.916;2023-06-22T05:04:00;100320.56;;;22.62;100.00
21779;BME280;11050;52.222;20.916;2023-06-22T05:06:28;100317.56;;;22.67;100.00
21779;BME280;11050;52.222;20.916;2023-06-22T05:08:56;100315.59;;;22.76;100.00
21779;BME280;11050;52.222;20.916;2023-06-22T05:11:28;100315.41;;;22.81;100.00
21779;BME280;11050;52.222;20.916;2023-06-22T05:13:54;100323.63;;;22.86;100.00
21779;BME280;11050;52.222;20.916;2023-06-22T05:16:22;100321.78;;;22.90;100.00
21779;BME280;11050;52.222;20.916;2023-06-22T05:18:55;100311.75;;;22.89;100.00
21779;BME280;11050;52.222;20.916;2023-06-22T05:21:26;100333.97;;;22.94;100.00
21779;BME280;11050;52.222;20.916;2023-06-22T05:23:53;100330.69;;;22.92;100.00
21779;BME280;11050;52.222;20.916;2023-06-22T05:26:20;100325.38;;;22.99;100.00
21779;BME280;11050;52.222;20.916;2023-06-22T05:28:47;100328.47;;;23.14;100.00
21779;BME280;11050;52.222;20.916;2023-06-22T05:31:15;100328.06;;;23.33;100.00
21779;BME280;11050;52.222;20.916;2023-06-22T05:33:42;100346.16;;;23.44;100.00
21779;BME280;11050;52.222;20.916;2023-06-22T05:36:09;100354.63;;;23.35;100.00
21779;BME280;11050;52.222;20.916;2023-06-22T05:38:36;100352.31;;;23.37;100.00
21779;BME280;11050;52.222;20.916;2023-06-22T05:41:02;100353.13;;;23.38;100.00
21779;BME280;11050;52.222;20.916;2023-06-22T05:43:28;100363.19;;;23.39;100.00
21779;BME280;11050;52.222;20.916;2023-06-22T05:45:54;100354.25;;;23.45;100.00
21779;BME280;11050;52.222;20.916;2023-06-22T05:48:20;100360.38;;;23.39;100.00
21779;BME280;11050;52.222;20.916;2023-06-22T05:50:46;100364.81;;;23.40;100.00
21779;BME280;11050;52.222;20.916;2023-06-22T05:53:12;100359.53;;;23.47;100.00
21779;BME280;11050;52.222;20.916;2023-06-22T05:55:37;100363.78;;;23.53;100.00
21779;BME280;11050;52.222;20.916;2023-06-22T05:58:03;100362.22;;;23.64;100.00
21779;BME280;11050;52.222;20.916;2023-06-22T06:00:29;100368.13;;;23.71;100.00
21779;BME280;11050;52.222;20.916;2023-06-22T06:02:56;100357.72;;;23.72;100.00
21779;BME280;11050;52.222;20.916;2023-06-22T06:05:22;100358.88;;;23.71;100.00
21779;BME280;11050;52.222;20.916;2023-06-22T06:07:49;100370.53;;;23.81;100.00
21779;BME280;11050;52.222;20.916;2023-06-22T06:10:15;100374.72;;;23.96;100.00
21779;BME280;11050;52.222;20.916;2023-06-22T06:12:41;100380.66;;;24.03;100.00
21779;BME280;11050;52.222;20.916;2023-06-22T06:15:07;100386.41;;;24.06;100.00
21779;BME280;11050;52.222;20.916;2023-06-22T06:17:33;100384.50;;;24.19;100.00
21779;BME280;11050;52.222;20.916;2023-06-22T06:19:59;100388.09;;;24.40;100.00
21779;BME280;11050;52.222;20.916;2023-06-22T06:22:25;100394.97;;;24.51;100.00
21779;BME280;11050;52.222;20.916;2023-06-22T06:24:51;100390.56;;;24.62;100.00
21779;BME280;11050;52.222;20.916;2023-06-22T06:27:17;100391.97;;;24.68;100.00
21779;BME280;11050;52.222;20.916;2023-06-22T06:29:45;100384.66;;;24.76;100.00
21779;BME280;11050;52.222;20.916;2023-06-22T06:32:13;100380.94;;;24.84;100.00
21779;BME280;11050;52.222;20.916;2023-06-22T06:34:39;100384.94;;;24.95;100.00
21779;BME280;11050;52.222;20.916;2023-06-22T06:37:06;100386.00;;;24.90;100.00
21779;BME280;11050;52.222;20.916;2023-06-22T06:39:32;100395.69;;;24.81;100.00
21779;BME280;11050;52.222;20.916;2023-06-22T06:41:57;100383.22;;;24.70;100.00
21779;BME280;11050;52.222;20.916;2023-06-22T06:44:23;100391.72;;;24.82;100.00
21779;BME280;11050;52.222;20.916;2023-06-22T06:46:49;100389.53;;;24.99;100.00
21779;BME280;11050;52.222;20.916;2023-06-22T06:49:14;100390.13;;;25.05;100.00
21779;BME280;11050;52.222;20.916;2023-06-22T06:51:40;100383.97;;;25.11;100.00
21779;BME280;11050;52.222;20.916;2023-06-22T06:54:06;100386.63;;;25.08;100.00
21779;BME280;11050;52.222;20.916;2023-06-22T06:56:32;100393.56;;;25.10;100.00
21779;BME280;11050;52.222;20.916;2023-06-22T06:58:58;100382.31;;;25.10;100.00
21779;BME280;11050;52.222;20.916;2023-06-22T07:01:24;100397.53;;;25.09;100.00
21779;BME280;11050;52.222;20.916;2023-06-22T07:03:50;100386.41;;;25.13;99.44
21779;BME280;11050;52.222;20.916;2023-06-22T07:06:16;100387.38;;;25.17;99.03
21779;BME280;11050;52.222;20.916;2023-06-22T07:08:42;100386.59;;;25.41;98.93
21779;BME280;11050;52.222;20.916;2023-06-22T07:11:08;100388.25;;;25.54;97.70
21779;BME280;11050;52.222;20.916;2023-06-22T07:13:34;100393.19;;;25.57;97.52
21779;BME280;11050;52.222;20.916;2023-06-22T07:16:00;100387.06;;;25.43;96.25
21779;BME280;11050;52.222;20.916;2023-06-22T07:18:25;100391.97;;;25.46;95.63
21779;BME280;11050;52.222;20.916;2023-06-22T07:20:52;100398.66;;;25.53;96.36
21779;BME280;11050;52.222;20.916;2023-06-22T07:23:18;100402.53;;;25.61;95.18
21779;BME280;11050;52.222;20.916;2023-06-22T07:25:43;100407.81;;;25.74;95.85
21779;BME280;11050;52.222;20.916;2023-06-22T07:28:09;100417.81;;;25.72;93.02
21779;BME280;11050;52.222;20.916;2023-06-22T07:30:35;100405.50;;;25.64;93.05
21779;BME280;11050;52.222;20.916;2023-06-22T07:33:02;100414.16;;;25.71;91.04
21779;BME280;11050;52.222;20.916;2023-06-22T07:35:33;100409.22;;;25.68;89.62
21779;BME280;11050;52.222;20.916;2023-06-22T07:37:59;100401.84;;;25.76;89.66
21779;BME280;11050;52.222;20.916;2023-06-22T07:40:26;100410.66;;;25.86;89.45
21779;BME280;11050;52.222;20.916;2023-06-22T07:42:52;100407.22;;;25.93;88.80
21779;BME280;11050;52.222;20.916;2023-06-22T07:45:19;100406.38;;;26.04;84.63
21779;BME280;11050;52.222;20.916;2023-06-22T07:47:44;100423.78;;;26.18;86.02
21779;BME280;11050;52.222;20.916;2023-06-22T07:50:10;100410.72;;;26.26;82.78
21779;BME280;11050;52.222;20.916;2023-06-22T07:52:36;100414.59;;;26.34;82.90
21779;BME280;11050;52.222;20.916;2023-06-22T07:55:02;100419.59;;;26.40;80.83
21779;BME280;11050;52.222;20.916;2023-06-22T07:57:28;100419.22;;;26.54;79.25
21779;BME280;11050;52.222;20.916;2023-06-22T08:00:04;100409.78;;;26.62;78.80
21779;BME280;11050;52.222;20.916;2023-06-22T08:02:37;100413.41;;;26.74;78.22
21779;BME280;11050;52.222;20.916;2023-06-22T08:05:03;100421.00;;;26.86;75.52
21779;BME280;11050;52.222;20.916;2023-06-22T08:07:30;100417.72;;;26.84;73.91
21779;BME280;11050;52.222;20.916;2023-06-22T08:09:58;100418.19;;;26.86;72.04
21779;BME280;11050;52.222;20.916;2023-06-22T08:12:24;100408.66;;;26.90;71.56
21779;BME280;11050;52.222;20.916;2023-06-22T08:14:50;100406.00;;;26.97;70.80
21779;BME280;11050;52.222;20.916;2023-06-22T08:17:16;100413.91;;;26.92;70.14
21779;BME280;11050;52.222;20.916;2023-06-22T08:19:41;100412.72;;;26.93;68.43
21779;BME280;11050;52.222;20.916;2023-06-22T08:22:07;100420.78;;;27.06;69.66
21779;BME280;11050;52.222;20.916;2023-06-22T08:24:33;100403.41;;;27.20;69.84
21779;BME280;11050;52.222;20.916;2023-06-22T08:26:59;100410.56;;;27.45;66.52
21779;BME280;11050;52.222;20.916;2023-06-22T08:29:25;100407.00;;;27.64;67.65
21779;BME280;11050;52.222;20.916;2023-06-22T08:31:50;100415.19;;;27.69;67.14
21779;BME280;11050;52.222;20.916;2023-06-22T08:34:16;100418.09;;;27.72;67.13
21779;BME280;11050;52.222;20.916;2023-06-22T08:36:47;100427.41;;;27.57;67.29
21779;BME280;11050;52.222;20.916;2023-06-22T08:39:18;100412.19;;;27.46;66.82
21779;BME280;11050;52.222;20.916;2023-06-22T08:41:43;100414.47;;;27.56;67.66
21779;BME280;11050;52.222;20.916;2023-06-22T08:44:10;100418.31;;;27.64;67.78
21779;BME280;11050;52.222;20.916;2023-06-22T08:46:36;100437.41;;;27.70;65.97
21779;BME280;11050;52.222;20.916;2023-06-22T08:49:02;100417.28;;;27.72;64.52
21779;BME280;11050;52.222;20.916;2023-06-22T08:51:28;100418.56;;;27.74;63.83
21779;BME280;11050;52.222;20.916;2023-06-22T08:53:54;100428.19;;;27.89;62.24
21779;BME280;11050;52.222;20.916;2023-06-22T08:56:20;100433.50;;;27.90;60.74
21779;BME280;11050;52.222;20.916;2023-06-22T08:58:46;100432.59;;;27.86;58.45
21779;BME280;11050;52.222;20.916;2023-06-22T09:01:11;100430.31;;;27.92;58.43
21779;BME280;11050;52.222;20.916;2023-06-22T09:03:37;100435.63;;;27.93;57.44
21779;BME280;11050;52.222;20.916;2023-06-22T09:06:03;100451.25;;;27.91;59.32
21779;BME280;11050;52.222;20.916;2023-06-22T09:08:29;100435.63;;;27.93;58.95
21779;BME280;11050;52.222;20.916;2023-06-22T09:10:55;100438.50;;;28.13;58.63
21779;BME280;11050;52.222;20.916;2023-06-22T09:13:20;100430.56;;;28.18;55.02
21779;BME280;11050;52.222;20.916;2023-06-22T09:15:47;100434.28;;;28.22;55.74
21779;BME280;11050;52.222;20.916;2023-06-22T09:18:14;100430.06;;;28.32;54.67
21779;BME280;11050;52.222;20.916;2023-06-22T09:20:40;100423.34;;;28.40;52.67
21779;BME280;11050;52.222;20.916;2023-06-22T09:23:05;100422.97;;;28.57;53.85
21779;BME280;11050;52.222;20.916;2023-06-22T09:25:31;100415.63;;;28.71;50.81
21779;BME280;11050;52.222;20.916;2023-06-22T09:27:57;100408.69;;;28.69;51.48
21779;BME280;11050;52.222;20.916;2023-06-22T09:30:22;100416.41;;;28.72;50.49
21779;BME280;11050;52.222;20.916;2023-06-22T09:32:48;100410.69;;;28.87;52.37
21779;BME280;11050;52.222;20.916;2023-06-22T09:35:14;100416.47;;;28.94;52.41
21779;BME280;11050;52.222;20.916;2023-06-22T09:37:40;100419.22;;;29.10;51.89
21779;BME280;11050;52.222;20.916;2023-06-22T09:40:07;100411.09;;;29.09;49.00
21779;BME280;11050;52.222;20.916;2023-06-22T09:42:39;100410.59;;;29.03;50.59
21779;BME280;11050;52.222;20.916;2023-06-22T09:45:05;100411.75;;;29.02;50.79
21779;BME280;11050;52.222;20.916;2023-06-22T09:47:31;100410.13;;;29.01;50.26
21779;BME280;11050;52.222;20.916;2023-06-22T09:49:57;100412.38;;;29.11;49.69
21779;BME280;11050;52.222;20.916;2023-06-22T09:52:25;100413.09;;;29.27;51.73
21779;BME280;11050;52.222;20.916;2023-06-22T09:54:51;100413.97;;;29.31;49.68
21779;BME280;11050;52.222;20.916;2023-06-22T09:57:16;100406.50;;;29.42;50.01
21779;BME280;11050;52.222;20.916;2023-06-22T09:59:42;100417.75;;;29.61;47.85
21779;BME280;11050;52.222;20.916;2023-06-22T10:02:08;100407.19;;;29.58;46.40
21779;BME280;11050;52.222;20.916;2023-06-22T10:04:35;100401.69;;;29.69;46.63
21779;BME280;11050;52.222;20.916;2023-06-22T10:07:02;100422.41;;;29.96;49.47
21779;BME280;11050;52.222;20.916;2023-06-22T10:09:28;100398.56;;;30.00;47.04
21779;BME280;11050;52.222;20.916;2023-06-22T10:11:54;100415.75;;;30.11;47.34
21779;BME280;11050;52.222;20.916;2023-06-22T10:14:20;100419.34;;;30.08;47.35
21779;BME280;11050;52.222;20.916;2023-06-22T10:16:45;100434.72;;;30.07;47.93
21779;BME280;11050;52.222;20.916;2023-06-22T10:19:11;100412.81;;;30.04;48.13
21779;BME280;11050;52.222;20.916;2023-06-22T10:21:37;100420.00;;;30.24;46.37
21779;BME280;11050;52.222;20.916;2023-06-22T10:24:03;100414.00;;;30.29;45.07
21779;BME280;11050;52.222;20.916;2023-06-22T10:26:32;100431.94;;;30.36;46.15
21779;BME280;11050;52.222;20.916;2023-06-22T10:28:59;100417.38;;;30.38;48.13
21779;BME280;11050;52.222;20.916;2023-06-22T10:31:25;100401.38;;;30.52;47.73
21779;BME280;11050;52.222;20.916;2023-06-22T10:33:51;100407.28;;;30.70;45.36
21779;BME280;11050;52.222;20.916;2023-06-22T10:36:16;100395.19;;;30.76;46.79
21779;BME280;11050;52.222;20.916;2023-06-22T10:38:42;100399.50;;;30.97;45.96
21779;BME280;11050;52.222;20.916;2023-06-22T10:41:08;100389.50;;;31.10;45.07
21779;BME280;11050;52.222;20.916;2023-06-22T10:43:34;100390.88;;;31.23;43.37
21779;BME280;11050;52.222;20.916;2023-06-22T10:45:59;100395.00;;;31.29;43.63
21779;BME280;11050;52.222;20.916;2023-06-22T10:48:25;100399.75;;;31.54;42.04
21779;BME280;11050;52.222;20.916;2023-06-22T10:50:51;100398.31;;;31.78;38.73
21779;BME280;11050;52.222;20.916;2023-06-22T10:53:16;100398.69;;;31.77;37.65
21779;BME280;11050;52.222;20.916;2023-06-22T10:55:42;100404.00;;;31.78;38.70
21779;BME280;11050;52.222;20.916;2023-06-22T10:58:08;100383.84;;;31.94;38.70
21779;BME280;11050;52.222;20.916;2023-06-22T11:00:33;100378.75;;;32.24;38.64
21779;BME280;11050;52.222;20.916;2023-06-22T11:02:59;100385.47;;;32.67;38.51
21779;BME280;11050;52.222;20.916;2023-06-22T11:05:25;100387.69;;;33.15;36.99
21779;BME280;11050;52.222;20.916;2023-06-22T11:07:51;100392.22;;;33.41;37.14
21779;BME280;11050;52.222;20.916;2023-06-22T11:10:16;100377.97;;;33.41;36.20
21779;BME280;11050;52.222;20.916;2023-06-22T11:12:42;100380.84;;;33.66;34.66
21779;BME280;11050;52.222;20.916;2023-06-22T11:15:08;100390.59;;;34.14;33.64
21779;BME280;11050;52.222;20.916;2023-06-22T11:17:35;100384.69;;;34.74;33.42
21779;BME280;11050;52.222;20.916;2023-06-22T11:20:01;100376.69;;;35.23;33.19
21779;BME280;11050;52.222;20.916;2023-06-22T11:22:30;100377.47;;;35.82;31.39
21779;BME280;11050;52.222;20.916;2023-06-22T11:24:58;100381.28;;;36.13;30.69
21779;BME280;11050;52.222;20.916;2023-06-22T11:27:24;100388.47;;;36.28;31.27
21779;BME280;11050;52.222;20.916;2023-06-22T11:29:50;100384.06;;;36.57;29.33
21779;BME280;11050;52.222;20.916;2023-06-22T11:32:18;100383.56;;;36.99;28.63
21779;BME280;11050;52.222;20.916;2023-06-22T11:34:44;100380.50;;;37.40;28.18
21779;BME280;11050;52.222;20.916;2023-06-22T11:37:10;100381.50;;;37.53;27.88
21779;BME280;11050;52.222;20.916;2023-06-22T11:39:36;100373.59;;;37.61;27.56
21779;BME280;11050;52.222;20.916;2023-06-22T11:42:02;100389.84;;;37.94;27.32
21779;BME280;11050;52.222;20.916;2023-06-22T11:44:27;100390.69;;;38.57;27.22
21779;BME280;11050;52.222;20.916;2023-06-22T11:46:53;100390.41;;;38.91;25.89
21779;BME280;11050;52.222;20.916;2023-06-22T11:49:19;100398.00;;;39.20;25.20
21779;BME280;11050;52.222;20.916;2023-06-22T11:51:44;100397.28;;;39.32;25.60
21779;BME280;11050;52.222;20.916;2023-06-22T11:54:10;100386.91;;;39.19;25.14
21779;BME280;11050;52.222;20.916;2023-06-22T11:56:36;100382.97;;;39.45;25.28
21779;BME280;11050;52.222;20.916;2023-06-22T11:59:01;100384.75;;;39.74;23.78
21779;BME280;11050;52.222;20.916;2023-06-22T12:01:27;100391.56;;;39.48;23.96
21779;BME280;11050;52.222;20.916;2023-06-22T12:03:53;100376.31;;;39.16;24.47
21779;BME280;11050;52.222;20.916;2023-06-22T12:06:19;100391.88;;;39.18;23.98
21779;BME280;11050;52.222;20.916;2023-06-22T12:08:44;100372.38;;;39.06;24.62
21779;BME280;11050;52.222;20.916;2023-06-22T12:11:10;100374.75;;;39.11;24.25
21779;BME280;11050;52.222;20.916;2023-06-22T12:13:36;100377.28;;;39.09;24.44
21779;BME280;11050;52.222;20.916;2023-06-22T12:16:01;100371.41;;;39.48;24.04
21779;BME280;11050;52.222;20.916;2023-06-22T12:18:27;100358.91;;;39.87;22.99
21779;BME280;11050;52.222;20.916;2023-06-22T12:20:53;100363.16;;;39.99;23.43
21779;BME280;11050;52.222;20.916;2023-06-22T12:23:18;100380.34;;;39.70;23.20
21779;BME280;11050;52.222;20.916;2023-06-22T12:25:45;100366.66;;;38.47;24.62
21779;BME280;11050;52.222;20.916;2023-06-22T12:28:11;100371.91;;;38.10;25.64
21779;BME280;11050;52.222;20.916;2023-06-22T12:30:37;100359.31;;;38.85;24.39
21779;BME280;11050;52.222;20.916;2023-06-22T12:33:02;100359.44;;;39.50;23.64
21779;BME280;11050;52.222;20.916;2023-06-22T12:35:28;100359.00;;;40.00;23.40
21779;BME280;11050;52.222;20.916;2023-06-22T12:37:54;100352.31;;;40.47;22.84
21779;BME280;11050;52.222;20.916;2023-06-22T12:40:20;100359.84;;;40.57;21.99
21779;BME280;11050;52.222;20.916;2023-06-22T12:42:45;100359.47;;;40.27;22.24